sensor_id;sensor_type;location;lat;lon;timestamp;temperature;humidity
44627;DHT22;30333;52.192;8.834;2022-08-14T00:00:12;21.70;95.20
44627;DHT22;30333;52.192;8.834;2022-08-14T00:05:11;21.40;95.70
44627;DHT22;30333;52.192;8.834;2022-08-14T00:07:38;21.40;96.10
44627;DHT22;30333;52.192;8.834;2022-08-14T00:10:10;22.70;96.60
44627;DHT22;30333;52.192;8.834;2022-08-14T00:12:57;21.40;96.10
44627;DHT22;30333;52.192;8.834;2022-08-14T00:15:28;21.30;96.20
44627;DHT22;30333;52.192;8.834;2022-08-14T00:18:10;21.30;96.20
44627;DHT22;30333;52.192;8.834;2022-08-14T00:20:56;22.90;96.60
44627;DHT22;30333;52.192;8.834;2022-08-14T00:25:53;21.30;95.90
44627;DHT22;30333;52.192;8.834;2022-08-14T00:28:33;21.30;96.50
44627;DHT22;30333;52.192;8.834;2022-08-14T00:31:03;21.20;96.70
44627;DHT22;30333;52.192;8.834;2022-08-14T00:33:30;21.20;96.50
44627;DHT22;30333;52.192;8.834;2022-08-14T00:36:17;21.20;96.50
44627;DHT22;30333;52.192;8.834;2022-08-14T00:39:04;21.10;96.60
44627;DHT22;30333;52.192;8.834;2022-08-14T00:41:35;21.20;96.60
44627;DHT22;30333;52.192;8.834;2022-08-14T00:46:33;21.10;96.40
44627;DHT22;30333;52.192;8.834;2022-08-14T00:49:01;21.20;96.80
44627;DHT22;30333;52.192;8.834;2022-08-14T00:51:28;21.20;96.60
44627;DHT22;30333;52.192;8.834;2022-08-14T00:54:05;21.20;96.80
44627;DHT22;30333;52.192;8.834;2022-08-14T00:56:49;21.40;97.30
44627;DHT22;30333;52.192;8.834;2022-08-14T00:59:22;21.80;97.60
44627;DHT22;30333;52.192;8.834;2022-08-14T01:01:53;21.10;97.50
44627;DHT22;30333;52.192;8.834;2022-08-14T01:04:22;21.00;97.60
44627;DHT22;30333;52.192;8.834;2022-08-14T01:07:09;21.50;97.80
44627;DHT22;30333;52.192;8.834;2022-08-14T01:09:39;22.50;98.40
44627;DHT22;30333;52.192;8.834;2022-08-14T01:12:08;20.80;98.30
44627;DHT22;30333;52.192;8.834;2022-08-14T01:14:36;20.70;98.60
44627;DHT22;30333;52.192;8.834;2022-08-14T01:17:07;20.60;98.90
44627;DHT22;30333;52.192;8.834;2022-08-14T01:19:35;20.60;99.00
44627;DHT22;30333;52.192;8.834;2022-08-14T01:22:23;20.60;99.20
44627;DHT22;30333;52.192;8.834;2022-08-14T01:24:52;20.50;99.30
44627;DHT22;30333;52.192;8.834;2022-08-14T01:27:21;20.50;99.30
44627;DHT22;30333;52.192;8.834;2022-08-14T01:29:53;20.50;99.50
44627;DHT22;30333;52.192;8.834;2022-08-14T01:32:31;20.40;99.60
44627;DHT22;30333;52.192;8.834;2022-08-14T01:35:08;20.40;99.60
44627;DHT22;30333;52.192;8.834;2022-08-14T01:37:56;20.40;99.70
44627;DHT22;30333;52.192;8.834;2022-08-14T01:40:24;20.40;99.90
44627;DHT22;30333;52.192;8.834;2022-08-14T01:43:08;22.30;99.90
44627;DHT22;30333;52.192;8.834;2022-08-14T01:45:40;22.70;99.90
44627;DHT22;30333;52.192;8.834;2022-08-14T01:48:07;20.20;99.90
44627;DHT22;30333;52.192;8.834;2022-08-14T01:50:40;20.30;99.90
44627;DHT22;30333;52.192;8.834;2022-08-14T01:53:09;20.30;99.90
44627;DHT22;30333;52.192;8.834;2022-08-14T01:55:36;20.30;99.90
44627;DHT22;30333;52.192;8.834;2022-08-14T01:58:06;20.10;99.90
44627;DHT22;30333;52.192;8.834;2022-08-14T02:00:48;20.30;99.90
44627;DHT22;30333;52.192;8.834;2022-08-14T02:03:21;20.30;99.90
44627;DHT22;30333;52.192;8.834;2022-08-14T02:05:49;22.00;99.90
44627;DHT22;30333;52.192;8.834;2022-08-14T02:08:17;20.40;99.90
44627;DHT22;30333;52.192;8.834;2022-08-14T02:11:00;20.80;99.90
44627;DHT22;30333;52.192;8.834;2022-08-14T02:13:48;20.40;99.90
44627;DHT22;30333;52.192;8.834;2022-08-14T02:16:19;20.40;99.90
44627;DHT22;30333;52.192;8.834;2022-08-14T02:18:48;20.50;99.90
44627;DHT22;30333;52.192;8.834;2022-08-14T02:21:15;20.40;99.90
44627;DHT22;30333;52.192;8.834;2022-08-14T02:23:47;20.40;99.90
44627;DHT22;30333;52.192;8.834;2022-08-14T02:26:25;20.40;99.90
44627;DHT22;30333;52.192;8.834;2022-08-14T02:28:59;20.30;99.90
44627;DHT22;30333;52.192;8.834;2022-08-14T02:31:30;20.50;99.90
44627;DHT22;30333;52.192;8.834;2022-08-14T02:34:11;20.30;99.90
44627;DHT22;30333;52.192;8.834;2022-08-14T02:36:53;21.60;99.90
44627;DHT22;30333;52.192;8.834;2022-08-14T02:39:34;20.30;99.90
44627;DHT22;30333;52.192;8.834;2022-08-14T02:42:04;20.30;99.90
44627;DHT22;30333;52.192;8.834;2022-08-14T02:44:31;20.20;99.90
44627;DHT22;30333;52.192;8.834;2022-08-14T02:47:06;20.50;99.90
44627;DHT22;30333;52.192;8.834;2022-08-14T02:49:44;20.30;99.90
44627;DHT22;30333;52.192;8.834;2022-08-14T02:52:16;21.00;99.90
44627;DHT22;30333;52.192;8.834;2022-08-14T02:55:05;20.10;99.90
44627;DHT22;30333;52.192;8.834;2022-08-14T02:57:33;20.10;99.90
44627;DHT22;30333;52.192;8.834;2022-08-14T03:00:08;20.10;99.90
44627;DHT22;30333;52.192;8.834;2022-08-14T03:02:36;20.10;99.90
44627;DHT22;30333;52.192;8.834;2022-08-14T03:05:22;20.20;99.90
44627;DHT22;30333;52.192;8.834;2022-08-14T03:07:49;21.90;99.90
44627;DHT22;30333;52.192;8.834;2022-08-14T03:10:20;20.10;99.90
44627;DHT22;30333;52.192;8.834;2022-08-14T03:12:52;20.10;99.90
44627;DHT22;30333;52.192;8.834;2022-08-14T03:15:19;20.40;99.90
44627;DHT22;30333;52.192;8.834;2022-08-14T03:17:47;20.10;99.90
44627;DHT22;30333;52.192;8.834;2022-08-14T03:20:24;20.10;99.90
44627;DHT22;30333;52.192;8.834;2022-08-14T03:22:53;20.20;99.90
44627;DHT22;30333;52.192;8.834;2022-08-14T03:25:23;20.20;99.90
44627;DHT22;30333;52.192;8.834;2022-08-14T03:27:50;20.70;99.90
44627;DHT22;30333;52.192;8.834;2022-08-14T03:30:29;20.20;99.90
44627;DHT22;30333;52.192;8.834;2022-08-14T03:33:08;20.10;99.90
44627;DHT22;30333;52.192;8.834;2022-08-14T03:35:37;20.10;99.90
44627;DHT22;30333;52.192;8.834;2022-08-14T03:38:24;20.10;99.90
44627;DHT22;30333;52.192;8.834;2022-08-14T03:41:14;20.20;99.90
44627;DHT22;30333;52.192;8.834;2022-08-14T03:43:43;20.10;99.90
44627;DHT22;30333;52.192;8.834;2022-08-14T03:46:11;20.10;99.90
44627;DHT22;30333;52.192;8.834;2022-08-14T03:48:59;20.10;99.90
44627;DHT22;30333;52.192;8.834;2022-08-14T03:51:31;20.10;99.90
44627;DHT22;30333;52.192;8.834;2022-08-14T03:54:00;22.30;99.90
44627;DHT22;30333;52.192;8.834;2022-08-14T03:56:29;20.10;99.90
44627;DHT22;30333;52.192;8.834;2022-08-14T03:58:59;20.10;99.90
44627;DHT22;30333;52.192;8.834;2022-08-14T04:01:36;20.10;99.90
44627;DHT22;30333;52.192;8.834;2022-08-14T04:04:19;21.80;99.90
44627;DHT22;30333;52.192;8.834;2022-08-14T04:06:48;20.10;99.90
44627;DHT22;30333;52.192;8.834;2022-08-14T04:09:18;20.00;99.90
44627;DHT22;30333;52.192;8.834;2022-08-14T04:11:47;20.00;99.90
44627;DHT22;30333;52.192;8.834;2022-08-14T04:14:16;20.00;99.90
44627;DHT22;30333;52.192;8.834;2022-08-14T04:16:44;19.90;99.90
44627;DHT22;30333;52.192;8.834;2022-08-14T04:19:14;21.30;99.90
44627;DHT22;30333;52.192;8.834;2022-08-14T04:21:45;19.90;99.90
44627;DHT22;30333;52.192;8.834;2022-08-14T04:24:30;20.00;99.90
44627;DHT22;30333;52.192;8.834;2022-08-14T04:27:06;20.00;99.90
44627;DHT22;30333;52.192;8.834;2022-08-14T04:29:36;20.00;99.90
44627;DHT22;30333;52.192;8.834;2022-08-14T04:32:05;20.00;99.90
44627;DHT22;30333;52.192;8.834;2022-08-14T04:37:22;19.90;99.90
44627;DHT22;30333;52.192;8.834;2022-08-14T04:40:08;19.90;99.90
44627;DHT22;30333;52.192;8.834;2022-08-14T04:42:56;19.80;99.90
44627;DHT22;30333;52.192;8.834;2022-08-14T04:45:44;21.30;99.90
44627;DHT22;30333;52.192;8.834;2022-08-14T04:48:16;19.80;99.90
44627;DHT22;30333;52.192;8.834;2022-08-14T04:51:07;19.80;99.90
44627;DHT22;30333;52.192;8.834;2022-08-14T04:53:36;19.80;99.90
44627;DHT22;30333;52.192;8.834;2022-08-14T04:56:09;19.80;99.90
44627;DHT22;30333;52.192;8.834;2022-08-14T04:59:01;20.30;99.90
44627;DHT22;30333;52.192;8.834;2022-08-14T05:01:38;19.80;99.90
44627;DHT22;30333;52.192;8.834;2022-08-14T05:04:11;19.80;99.90
44627;DHT22;30333;52.192;8.834;2022-08-14T05:06:42;19.80;99.90
44627;DHT22;30333;52.192;8.834;2022-08-14T05:09:08;19.80;99.90
44627;DHT22;30333;52.192;8.834;2022-08-14T05:11:40;19.80;99.90
44627;DHT22;30333;52.192;8.834;2022-08-14T05:14:08;19.80;99.90
44627;DHT22;30333;52.192;8.834;2022-08-14T05:16:55;19.80;99.90
44627;DHT22;30333;52.192;8.834;2022-08-14T05:19:27;19.80;99.90
44627;DHT22;30333;52.192;8.834;2022-08-14T05:21:57;19.90;99.90
44627;DHT22;30333;52.192;8.834;2022-08-14T05:24:43;20.00;99.90
44627;DHT22;30333;52.192;8.834;2022-08-14T05:27:14;20.00;99.90
44627;DHT22;30333;52.192;8.834;2022-08-14T05:29:42;20.00;99.90
44627;DHT22;30333;52.192;8.834;2022-08-14T05:32:12;22.70;99.90
44627;DHT22;30333;52.192;8.834;2022-08-14T05:34:40;20.20;99.90
44627;DHT22;30333;52.192;8.834;2022-08-14T05:37:11;20.10;99.90
44627;DHT22;30333;52.192;8.834;2022-08-14T05:39:41;20.20;99.90
44627;DHT22;30333;52.192;8.834;2022-08-14T05:42:08;20.20;99.90
44627;DHT22;30333;52.192;8.834;2022-08-14T05:44:48;20.20;99.90
44627;DHT22;30333;52.192;8.834;2022-08-14T05:47:19;20.30;99.90
44627;DHT22;30333;52.192;8.834;2022-08-14T05:49:46;20.30;99.90
44627;DHT22;30333;52.192;8.834;2022-08-14T05:52:14;20.30;99.90
44627;DHT22;30333;52.192;8.834;2022-08-14T05:54:43;20.40;99.90
44627;DHT22;30333;52.192;8.834;2022-08-14T05:57:10;20.50;99.90
44627;DHT22;30333;52.192;8.834;2022-08-14T05:59:37;20.50;99.90
44627;DHT22;30333;52.192;8.834;2022-08-14T06:02:08;20.40;99.90
44627;DHT22;30333;52.192;8.834;2022-08-14T06:04:36;20.50;99.90
44627;DHT22;30333;52.192;8.834;2022-08-14T06:07:04;20.50;99.90
44627;DHT22;30333;52.192;8.834;2022-08-14T06:09:31;20.60;99.90
44627;DHT22;30333;52.192;8.834;2022-08-14T06:12:07;22.80;99.90
44627;DHT22;30333;52.192;8.834;2022-08-14T06:14:34;20.70;99.90
44627;DHT22;30333;52.192;8.834;2022-08-14T06:17:02;20.80;99.90
44627;DHT22;30333;52.192;8.834;2022-08-14T06:19:30;21.00;99.90
44627;DHT22;30333;52.192;8.834;2022-08-14T06:21:57;20.90;99.90
44627;DHT22;30333;52.192;8.834;2022-08-14T06:24:25;21.00;99.90
44627;DHT22;30333;52.192;8.834;2022-08-14T06:26:52;22.10;99.90
44627;DHT22;30333;52.192;8.834;2022-08-14T06:29:22;21.20;99.90
44627;DHT22;30333;52.192;8.834;2022-08-14T06:31:50;21.20;99.90
44627;DHT22;30333;52.192;8.834;2022-08-14T06:34:26;21.40;99.90
44627;DHT22;30333;52.192;8.834;2022-08-14T06:37:14;22.10;99.90
44627;DHT22;30333;52.192;8.834;2022-08-14T06:39:44;21.50;99.90
44627;DHT22;30333;52.192;8.834;2022-08-14T06:42:11;23.50;99.90
44627;DHT22;30333;52.192;8.834;2022-08-14T06:44:58;21.50;99.90
44627;DHT22;30333;52.192;8.834;2022-08-14T06:47:28;21.60;99.90
44627;DHT22;30333;52.192;8.834;2022-08-14T06:49:55;21.60;99.90
44627;DHT22;30333;52.192;8.834;2022-08-14T06:52:25;21.60;99.90
44627;DHT22;30333;52.192;8.834;2022-08-14T06:54:55;22.90;99.90
44627;DHT22;30333;52.192;8.834;2022-08-14T06:57:22;22.40;99.90
44627;DHT22;30333;52.192;8.834;2022-08-14T06:59:50;22.50;99.90
44627;DHT22;30333;52.192;8.834;2022-08-14T07:02:17;21.80;99.90
44627;DHT22;30333;52.192;8.834;2022-08-14T07:05:09;21.90;99.90
44627;DHT22;30333;52.192;8.834;2022-08-14T07:07:56;22.00;99.90
44627;DHT22;30333;52.192;8.834;2022-08-14T07:12:51;22.20;99.90
44627;DHT22;30333;52.192;8.834;2022-08-14T07:15:30;22.30;99.90
44627;DHT22;30333;52.192;8.834;2022-08-14T07:18:00;22.50;99.90
44627;DHT22;30333;52.192;8.834;2022-08-14T07:20:28;23.20;99.90
44627;DHT22;30333;52.192;8.834;2022-08-14T07:22:59;22.70;99.90
44627;DHT22;30333;52.192;8.834;2022-08-14T07:25:34;23.90;99.90
44627;DHT22;30333;52.192;8.834;2022-08-14T07:28:07;22.80;99.90
44627;DHT22;30333;52.192;8.834;2022-08-14T07:30:39;23.00;99.90
44627;DHT22;30333;52.192;8.834;2022-08-14T07:33:18;23.20;99.90
44627;DHT22;30333;52.192;8.834;2022-08-14T07:35:50;23.10;99.90
44627;DHT22;30333;52.192;8.834;2022-08-14T07:38:26;23.90;99.90
44627;DHT22;30333;52.192;8.834;2022-08-14T07:41:04;23.30;99.90
44627;DHT22;30333;52.192;8.834;2022-08-14T07:43:41;23.40;99.90
44627;DHT22;30333;52.192;8.834;2022-08-14T07:46:13;23.90;99.90
44627;DHT22;30333;52.192;8.834;2022-08-14T07:48:47;23.50;99.70
44627;DHT22;30333;52.192;8.834;2022-08-14T07:51:14;23.60;99.30
44627;DHT22;30333;52.192;8.834;2022-08-14T07:53:43;23.80;99.10
44627;DHT22;30333;52.192;8.834;2022-08-14T07:56:12;23.90;98.60
44627;DHT22;30333;52.192;8.834;2022-08-14T07:58:59;23.90;98.70
44627;DHT22;30333;52.192;8.834;2022-08-14T08:01:27;24.00;98.70
44627;DHT22;30333;52.192;8.834;2022-08-14T08:03:57;24.50;99.10
44627;DHT22;30333;52.192;8.834;2022-08-14T08:06:29;24.10;98.40
44627;DHT22;30333;52.192;8.834;2022-08-14T08:08:59;24.20;98.30
44627;DHT22;30333;52.192;8.834;2022-08-14T08:11:32;24.30;97.80
44627;DHT22;30333;52.192;8.834;2022-08-14T08:14:04;24.40;97.60
44627;DHT22;30333;52.192;8.834;2022-08-14T08:16:36;24.50;97.60
44627;DHT22;30333;52.192;8.834;2022-08-14T08:21:40;24.40;97.20
44627;DHT22;30333;52.192;8.834;2022-08-14T08:24:11;24.50;97.90
44627;DHT22;30333;52.192;8.834;2022-08-14T08:26:44;26.30;97.30
44627;DHT22;30333;52.192;8.834;2022-08-14T08:29:18;25.70;97.10
44627;DHT22;30333;52.192;8.834;2022-08-14T08:31:51;24.80;96.40
44627;DHT22;30333;52.192;8.834;2022-08-14T08:34:19;25.70;96.20
44627;DHT22;30333;52.192;8.834;2022-08-14T08:36:50;24.90;95.80
44627;DHT22;30333;52.192;8.834;2022-08-14T08:39:19;25.00;96.00
44627;DHT22;30333;52.192;8.834;2022-08-14T08:41:49;25.10;95.80
44627;DHT22;30333;52.192;8.834;2022-08-14T08:44:20;25.10;95.80
44627;DHT22;30333;52.192;8.834;2022-08-14T08:46:59;25.20;95.30
44627;DHT22;30333;52.192;8.834;2022-08-14T08:49:35;25.20;95.60
44627;DHT22;30333;52.192;8.834;2022-08-14T08:54:56;25.30;95.10
44627;DHT22;30333;52.192;8.834;2022-08-14T08:59:50;25.40;95.00
44627;DHT22;30333;52.192;8.834;2022-08-14T09:02:24;25.40;95.10
44627;DHT22;30333;52.192;8.834;2022-08-14T09:05:01;25.60;94.60
44627;DHT22;30333;52.192;8.834;2022-08-14T09:07:28;25.60;94.70
44627;DHT22;30333;52.192;8.834;2022-08-14T09:09:58;25.90;95.10
44627;DHT22;30333;52.192;8.834;2022-08-14T09:12:26;26.00;94.50
44627;DHT22;30333;52.192;8.834;2022-08-14T09:15:00;27.40;95.40
44627;DHT22;30333;52.192;8.834;2022-08-14T09:17:27;26.00;95.00
44627;DHT22;30333;52.192;8.834;2022-08-14T09:19:54;26.10;93.70
44627;DHT22;30333;52.192;8.834;2022-08-14T09:22:22;26.20;93.90
44627;DHT22;30333;52.192;8.834;2022-08-14T09:25:04;26.30;93.70
44627;DHT22;30333;52.192;8.834;2022-08-14T09:27:33;26.20;93.10
44627;DHT22;30333;52.192;8.834;2022-08-14T09:30:00;26.30;93.70
44627;DHT22;30333;52.192;8.834;2022-08-14T09:32:59;26.40;93.60
44627;DHT22;30333;52.192;8.834;2022-08-14T09:35:46;26.40;93.80
44627;DHT22;30333;52.192;8.834;2022-08-14T09:38:27;26.60;92.70
44627;DHT22;30333;52.192;8.834;2022-08-14T09:41:22;26.60;92.90
44627;DHT22;30333;52.192;8.834;2022-08-14T09:44:26;27.10;93.30
44627;DHT22;30333;52.192;8.834;2022-08-14T09:46:57;26.60;93.10
44627;DHT22;30333;52.192;8.834;2022-08-14T09:49:32;26.60;92.70
44627;DHT22;30333;52.192;8.834;2022-08-14T09:52:08;26.50;93.00
44627;DHT22;30333;52.192;8.834;2022-08-14T09:54:55;26.50;92.90
44627;DHT22;30333;52.192;8.834;2022-08-14T09:57:26;26.70;93.10
44627;DHT22;30333;52.192;8.834;2022-08-14T09:59:55;27.30;93.40
44627;DHT22;30333;52.192;8.834;2022-08-14T10:02:23;28.00;93.10
44627;DHT22;30333;52.192;8.834;2022-08-14T10:05:01;26.70;92.70
44627;DHT22;30333;52.192;8.834;2022-08-14T10:07:30;27.00;92.70
44627;DHT22;30333;52.192;8.834;2022-08-14T10:09:57;27.00;92.90
44627;DHT22;30333;52.192;8.834;2022-08-14T10:12:46;27.10;92.10
44627;DHT22;30333;52.192;8.834;2022-08-14T10:15:21;27.10;91.90
44627;DHT22;30333;52.192;8.834;2022-08-14T10:18:03;27.10;91.70
44627;DHT22;30333;52.192;8.834;2022-08-14T10:20:32;28.30;91.40
44627;DHT22;30333;52.192;8.834;2022-08-14T10:23:12;27.20;91.80
44627;DHT22;30333;52.192;8.834;2022-08-14T10:25:45;27.20;91.60
44627;DHT22;30333;52.192;8.834;2022-08-14T10:28:17;27.30;91.20
44627;DHT22;30333;52.192;8.834;2022-08-14T10:31:16;28.80;91.70
44627;DHT22;30333;52.192;8.834;2022-08-14T10:34:00;27.60;91.30
44627;DHT22;30333;52.192;8.834;2022-08-14T10:36:30;27.80;91.30
44627;DHT22;30333;52.192;8.834;2022-08-14T10:39:08;28.00;91.10
44627;DHT22;30333;52.192;8.834;2022-08-14T10:41:43;27.90;91.30
44627;DHT22;30333;52.192;8.834;2022-08-14T10:44:17;27.90;90.30
44627;DHT22;30333;52.192;8.834;2022-08-14T10:46:52;28.00;90.50
44627;DHT22;30333;52.192;8.834;2022-08-14T10:49:40;28.00;90.80
44627;DHT22;30333;52.192;8.834;2022-08-14T10:52:23;27.90;89.80
44627;DHT22;30333;52.192;8.834;2022-08-14T10:54:51;28.60;90.80
44627;DHT22;30333;52.192;8.834;2022-08-14T10:57:23;28.00;90.00
44627;DHT22;30333;52.192;8.834;2022-08-14T10:59:53;28.20;90.60
44627;DHT22;30333;52.192;8.834;2022-08-14T11:02:24;28.50;88.60
44627;DHT22;30333;52.192;8.834;2022-08-14T11:05:16;28.40;89.10
44627;DHT22;30333;52.192;8.834;2022-08-14T11:07:54;30.30;90.10
44627;DHT22;30333;52.192;8.834;2022-08-14T11:10:24;28.60;87.60
44627;DHT22;30333;52.192;8.834;2022-08-14T11:12:55;28.80;88.00
44627;DHT22;30333;52.192;8.834;2022-08-14T11:15:25;28.70;88.30
44627;DHT22;30333;52.192;8.834;2022-08-14T11:17:54;29.70;87.80
44627;DHT22;30333;52.192;8.834;2022-08-14T11:20:28;28.80;87.30
44627;DHT22;30333;52.192;8.834;2022-08-14T11:22:57;28.80;87.90
44627;DHT22;30333;52.192;8.834;2022-08-14T11:25:27;29.60;88.70
44627;DHT22;30333;52.192;8.834;2022-08-14T11:28:11;30.20;89.40
44627;DHT22;30333;52.192;8.834;2022-08-14T11:30:47;31.60;87.60
44627;DHT22;30333;52.192;8.834;2022-08-14T11:33:24;29.10;86.40
44627;DHT22;30333;52.192;8.834;2022-08-14T11:35:56;29.10;86.80
44627;DHT22;30333;52.192;8.834;2022-08-14T11:40:56;29.10;85.30
44627;DHT22;30333;52.192;8.834;2022-08-14T11:43:25;29.00;85.70
44627;DHT22;30333;52.192;8.834;2022-08-14T11:45:59;29.20;85.00
44627;DHT22;30333;52.192;8.834;2022-08-14T11:51:21;29.50;84.10
44627;DHT22;30333;52.192;8.834;2022-08-14T11:53:51;29.50;83.80
44627;DHT22;30333;52.192;8.834;2022-08-14T11:56:18;29.50;84.30
44627;DHT22;30333;52.192;8.834;2022-08-14T11:58:52;30.90;84.90
44627;DHT22;30333;52.192;8.834;2022-08-14T12:01:28;29.80;84.50
44627;DHT22;30333;52.192;8.834;2022-08-14T12:04:07;30.00;83.50
44627;DHT22;30333;52.192;8.834;2022-08-14T12:09:29;30.40;82.30
44627;DHT22;30333;52.192;8.834;2022-08-14T12:11:56;30.50;81.60
44627;DHT22;30333;52.192;8.834;2022-08-14T12:14:23;30.50;82.90
44627;DHT22;30333;52.192;8.834;2022-08-14T12:17:04;30.50;82.40
44627;DHT22;30333;52.192;8.834;2022-08-14T12:19:43;30.50;81.00
44627;DHT22;30333;52.192;8.834;2022-08-14T12:22:18;30.50;82.30
44627;DHT22;30333;52.192;8.834;2022-08-14T12:24:56;30.40;81.30
44627;DHT22;30333;52.192;8.834;2022-08-14T12:27:37;30.30;81.00
44627;DHT22;30333;52.192;8.834;2022-08-14T12:30:13;30.30;81.40
44627;DHT22;30333;52.192;8.834;2022-08-14T12:32:48;30.20;82.20
44627;DHT22;30333;52.192;8.834;2022-08-14T12:35:16;29.60;82.20
44627;DHT22;30333;52.192;8.834;2022-08-14T12:37:47;32.60;84.80
44627;DHT22;30333;52.192;8.834;2022-08-14T12:40:17;30.30;81.30
44627;DHT22;30333;52.192;8.834;2022-08-14T12:42:46;30.40;80.40
44627;DHT22;30333;52.192;8.834;2022-08-14T12:45:29;31.00;81.30
44627;DHT22;30333;52.192;8.834;2022-08-14T12:48:00;30.50;81.80
44627;DHT22;30333;52.192;8.834;2022-08-14T12:50:48;31.80;80.70
44627;DHT22;30333;52.192;8.834;2022-08-14T12:53:18;32.40;80.60
44627;DHT22;30333;52.192;8.834;2022-08-14T12:55:57;31.00;79.90
44627;DHT22;30333;52.192;8.834;2022-08-14T12:58:48;30.90;79.90
44627;DHT22;30333;52.192;8.834;2022-08-14T13:01:19;30.90;79.00
44627;DHT22;30333;52.192;8.834;2022-08-14T13:03:49;30.80;78.40
44627;DHT22;30333;52.192;8.834;2022-08-14T13:06:18;31.00;79.40
44627;DHT22;30333;52.192;8.834;2022-08-14T13:08:45;30.80;79.70
44627;DHT22;30333;52.192;8.834;2022-08-14T13:11:19;30.90;80.40
44627;DHT22;30333;52.192;8.834;2022-08-14T13:13:57;30.90;79.60
44627;DHT22;30333;52.192;8.834;2022-08-14T13:16:27;31.00;79.40
44627;DHT22;30333;52.192;8.834;2022-08-14T13:19:06;31.00;79.30
44627;DHT22;30333;52.192;8.834;2022-08-14T13:21:37;31.10;80.40
44627;DHT22;30333;52.192;8.834;2022-08-14T13:24:25;31.00;78.10
44627;DHT22;30333;52.192;8.834;2022-08-14T13:26:55;31.00;78.00
44627;DHT22;30333;52.192;8.834;2022-08-14T13:29:25;31.20;79.10
44627;DHT22;30333;52.192;8.834;2022-08-14T13:31:56;31.10;78.20
44627;DHT22;30333;52.192;8.834;2022-08-14T13:34:28;31.30;78.60
44627;DHT22;30333;52.192;8.834;2022-08-14T13:36:57;31.10;78.00
44627;DHT22;30333;52.192;8.834;2022-08-14T13:39:29;31.10;77.50
44627;DHT22;30333;52.192;8.834;2022-08-14T13:42:03;31.00;78.80
44627;DHT22;30333;52.192;8.834;2022-08-14T13:44:34;30.90;77.80
44627;DHT22;30333;52.192;8.834;2022-08-14T13:47:01;30.70;78.50
44627;DHT22;30333;52.192;8.834;2022-08-14T13:49:36;30.60;78.20
44627;DHT22;30333;52.192;8.834;2022-08-14T13:52:23;30.60;78.10
44627;DHT22;30333;52.192;8.834;2022-08-14T13:55:11;32.50;79.70
44627;DHT22;30333;52.192;8.834;2022-08-14T13:57:40;31.10;79.70
44627;DHT22;30333;52.192;8.834;2022-08-14T14:00:18;31.30;78.10
44627;DHT22;30333;52.192;8.834;2022-08-14T14:02:53;31.60;75.60
44627;DHT22;30333;52.192;8.834;2022-08-14T14:05:25;31.90;76.50
44627;DHT22;30333;52.192;8.834;2022-08-14T14:08:13;31.80;76.60
44627;DHT22;30333;52.192;8.834;2022-08-14T14:13:30;32.60;75.10
44627;DHT22;30333;52.192;8.834;2022-08-14T14:15:57;32.90;73.50
44627;DHT22;30333;52.192;8.834;2022-08-14T14:18:30;33.20;72.40
44627;DHT22;30333;52.192;8.834;2022-08-14T14:21:02;33.70;73.70
44627;DHT22;30333;52.192;8.834;2022-08-14T14:23:31;33.20;72.00
44627;DHT22;30333;52.192;8.834;2022-08-14T14:25:59;34.30;74.30
44627;DHT22;30333;52.192;8.834;2022-08-14T14:28:30;32.80;73.50
44627;DHT22;30333;52.192;8.834;2022-08-14T14:31:00;32.50;73.00
44627;DHT22;30333;52.192;8.834;2022-08-14T14:33:34;32.50;73.90
44627;DHT22;30333;52.192;8.834;2022-08-14T14:36:18;31.90;73.90
44627;DHT22;30333;52.192;8.834;2022-08-14T14:38:50;31.60;74.10
44627;DHT22;30333;52.192;8.834;2022-08-14T14:41:20;31.60;74.00
44627;DHT22;30333;52.192;8.834;2022-08-14T14:43:49;31.60;74.80
44627;DHT22;30333;52.192;8.834;2022-08-14T14:46:19;31.40;75.30
44627;DHT22;30333;52.192;8.834;2022-08-14T14:48:47;31.40;74.10
44627;DHT22;30333;52.192;8.834;2022-08-14T14:51:21;31.40;73.80
44627;DHT22;30333;52.192;8.834;2022-08-14T14:53:49;31.60;74.40
44627;DHT22;30333;52.192;8.834;2022-08-14T14:56:18;33.10;76.10
44627;DHT22;30333;52.192;8.834;2022-08-14T14:59:06;31.50;75.30
44627;DHT22;30333;52.192;8.834;2022-08-14T15:01:33;31.50;75.90
44627;DHT22;30333;52.192;8.834;2022-08-14T15:04:02;31.40;75.80
44627;DHT22;30333;52.192;8.834;2022-08-14T15:06:47;31.40;75.20
44627;DHT22;30333;52.192;8.834;2022-08-14T15:09:14;31.50;74.70
44627;DHT22;30333;52.192;8.834;2022-08-14T15:11:44;32.00;74.10
44627;DHT22;30333;52.192;8.834;2022-08-14T15:14:12;31.50;73.20
44627;DHT22;30333;52.192;8.834;2022-08-14T15:17:00;31.60;73.40
44627;DHT22;30333;52.192;8.834;2022-08-14T15:19:27;32.10;73.50
44627;DHT22;30333;52.192;8.834;2022-08-14T15:21:56;31.30;72.80
44627;DHT22;30333;52.192;8.834;2022-08-14T15:24:23;31.20;75.00
44627;DHT22;30333;52.192;8.834;2022-08-14T15:26:53;32.00;74.50
44627;DHT22;30333;52.192;8.834;2022-08-14T15:29:21;32.20;74.40
44627;DHT22;30333;52.192;8.834;2022-08-14T15:31:50;31.10;74.10
44627;DHT22;30333;52.192;8.834;2022-08-14T15:34:19;31.10;73.60
44627;DHT22;30333;52.192;8.834;2022-08-14T15:37:07;31.10;74.70
44627;DHT22;30333;52.192;8.834;2022-08-14T15:39:39;31.30;75.10
44627;DHT22;30333;52.192;8.834;2022-08-14T15:42:08;30.80;75.30
44627;DHT22;30333;52.192;8.834;2022-08-14T15:44:43;31.00;75.50
44627;DHT22;30333;52.192;8.834;2022-08-14T15:47:23;31.00;74.10
44627;DHT22;30333;52.192;8.834;2022-08-14T15:49:54;31.10;74.70
44627;DHT22;30333;52.192;8.834;2022-08-14T15:52:27;31.10;74.50
44627;DHT22;30333;52.192;8.834;2022-08-14T15:55:00;32.20;75.40
44627;DHT22;30333;52.192;8.834;2022-08-14T15:57:30;31.10;75.10
44627;DHT22;30333;52.192;8.834;2022-08-14T15:59:57;31.10;75.10
44627;DHT22;30333;52.192;8.834;2022-08-14T16:03:03;31.20;74.40
44627;DHT22;30333;52.192;8.834;2022-08-14T16:05:34;31.20;73.70
44627;DHT22;30333;52.192;8.834;2022-08-14T16:08:07;31.50;73.90
44627;DHT22;30333;52.192;8.834;2022-08-14T16:10:54;31.30;73.60
44627;DHT22;30333;52.192;8.834;2022-08-14T16:13:21;31.40;73.30
44627;DHT22;30333;52.192;8.834;2022-08-14T16:16:13;31.50;73.90
44627;DHT22;30333;52.192;8.834;2022-08-14T16:19:02;31.80;73.10
44627;DHT22;30333;52.192;8.834;2022-08-14T16:21:33;31.80;73.60
44627;DHT22;30333;52.192;8.834;2022-08-14T16:24:05;31.90;72.60
44627;DHT22;30333;52.192;8.834;2022-08-14T16:26:32;31.80;72.20
44627;DHT22;30333;52.192;8.834;2022-08-14T16:29:00;31.80;73.00
44627;DHT22;30333;52.192;8.834;2022-08-14T16:31:34;31.80;74.80
44627;DHT22;30333;52.192;8.834;2022-08-14T16:34:04;31.90;74.70
44627;DHT22;30333;52.192;8.834;2022-08-14T16:36:52;31.90;72.50
44627;DHT22;30333;52.192;8.834;2022-08-14T16:39:21;32.00;72.30
44627;DHT22;30333;52.192;8.834;2022-08-14T16:41:50;31.90;71.40